LKCH weather

Chomutov Airfield
Chomutov, Ústí nad Labem Region, Czech Republic

Public forecast

Using degrees Celsius for public forecast. Weather courtesy of forecast.io.

Closest aviation weather report (METAR) to Chomutov Airfield

Closest report is Karlovy Vary International Airport, 26.5 nm (49.1 km) SW. Retrieved 2019/12/16 02:00 UTC (8 minutes ago):

LKKV 160200Z 12004KT 9999 FEW015 01/01 Q1012

Closest aviation forecast (TAF) to Chomutov Airfield

Closest forecast is Karlovy Vary International Airport, 26.5 nm (49.1 km) SW. Retrieved 2019-12-16 00:06 UTC (2 hours ago):

TAF LKKV 152300Z 1600/1706 23004KT 9999 SCT020 TEMPO 1600/1606 6000 -RA BKN013 OVC018 BECMG 1602/1604 18004KT BECMG 1608/1610 9999 FEW020 BECMG 1700/1703 0700 FG OVC002 TEMPO 1703/1706 0300 FG VV001